Time;durP1;ratioP1;P1;durP2;ratioP2;P2;SDS_P1;SDS_P2;PMS_P1;PMS_P2;Temp;Humidity;BMP_temperature;BMP_pressure;BME280_temperature;BME280_humidity;BME280_pressure;Samples;Min_cycle;Max_cycle;Signal;HPM_P1;HPM_P2
2024/04/14 00:00:16;;;;;;;10.57;8.95;;;15.00;67.30;;;;;;4507435;26;20032;-69
2024/04/14 00:02:17;;;;;;;13.75;9.25;;;15.00;67.80;;;;;;4508989;26;20002;-68
2024/04/14 00:04:17;;;;;;;17.50;9.43;;;14.90;67.90;;;;;;4509143;26;20005;-68
2024/04/14 00:06:18;;;;;;;14.00;9.40;;;14.90;67.90;;;;;;4509214;26;20530;-69
2024/04/14 00:08:18;;;;;;;11.27;8.95;;;14.90;68.00;;;;;;4510061;26;20009;-68
2024/04/14 00:10:19;;;;;;;9.25;8.00;;;14.90;68.00;;;;;;4510672;26;20013;-68
2024/04/14 00:12:20;;;;;;;13.48;7.63;;;14.90;67.90;;;;;;4508508;26;20010;-69
2024/04/14 00:14:23;;;;;;;14.00;7.90;;;14.90;68.10;;;;;;4507960;26;20371;-69
2024/04/14 00:16:26;;;;;;;12.85;7.07;;;14.90;68.20;;;;;;4509415;26;19994;-68
2024/04/14 00:18:27;;;;;;;10.70;5.93;;;14.90;68.00;;;;;;4485221;26;20014;-69
2024/04/14 00:20:28;;;;;;;8.10;5.72;;;14.90;68.00;;;;;;4509980;26;20021;-69
2024/04/14 00:22:29;;;;;;;10.98;5.00;;;14.90;68.40;;;;;;4510015;26;20013;-69
2024/04/14 00:24:29;;;;;;;9.45;4.20;;;14.80;68.50;;;;;;4508074;26;19999;-69
2024/04/14 00:26:30;;;;;;;5.85;3.78;;;14.70;68.80;;;;;;4507253;26;20031;-70
2024/04/14 00:28:31;;;;;;;6.20;3.75;;;14.70;68.70;;;;;;4509571;26;20007;-69
2024/04/14 00:30:31;;;;;;;5.28;3.67;;;14.70;68.90;;;;;;4507613;26;20001;-67
2024/04/14 00:32:32;;;;;;;6.35;3.58;;;14.80;68.70;;;;;;4509481;26;20961;-68
2024/04/14 00:34:33;;;;;;;2.90;2.60;;;14.70;69.10;;;;;;4507713;26;19999;-68
2024/04/14 00:36:33;;;;;;;3.75;2.65;;;14.70;68.80;;;;;;4509308;26;20050;-68
2024/04/14 00:38:34;;;;;;;6.03;3.72;;;14.70;68.90;;;;;;4509642;26;20391;-68
2024/04/14 00:40:35;;;;;;;4.15;2.97;;;14.70;69.00;;;;;;4509502;26;20009;-68
2024/04/14 00:42:36;;;;;;;5.90;3.03;;;14.70;69.10;;;;;;4507376;26;20023;-68
2024/04/14 00:44:37;;;;;;;6.03;2.42;;;14.70;69.10;;;;;;4507368;26;19991;-68
2024/04/14 00:46:38;;;;;;;6.30;2.33;;;14.70;69.00;;;;;;4509365;26;20009;-68
2024/04/14 00:48:40;;;;;;;5.35;2.40;;;14.70;69.00;;;;;;4509588;26;20129;-67
2024/04/14 00:50:43;;;;;;;7.07;2.35;;;14.80;69.00;;;;;;4507556;26;19998;-68
2024/04/14 00:52:44;;;;;;;5.70;1.98;;;14.70;69.00;;;;;;4507506;26;20537;-68
2024/04/14 00:54:45;;;;;;;3.25;2.35;;;14.70;69.10;;;;;;4509376;26;20044;-68
2024/04/14 00:56:47;;;;;;;5.22;3.15;;;14.70;68.80;;;;;;4508695;26;20079;-68
2024/04/14 00:58:48;;;;;;;6.10;2.50;;;14.70;69.20;;;;;;4507443;26;20022;-68
2024/04/14 01:00:48;;;;;;;6.35;2.33;;;14.70;69.00;;;;;;4509564;26;20345;-69
2024/04/14 01:02:53;;;;;;;3.72;1.80;;;14.70;69.10;;;;;;4509091;26;20318;-68
2024/04/14 01:04:53;;;;;;;6.32;2.53;;;14.70;69.00;;;;;;4509219;26;20018;-68
2024/04/14 01:06:54;;;;;;;5.68;1.88;;;14.80;68.70;;;;;;4508845;26;19998;-68
2024/04/14 01:08:55;;;;;;;5.47;2.80;;;14.90;68.90;;;;;;4509207;26;20006;-68
2024/04/14 01:10:55;;;;;;;7.78;3.65;;;14.80;69.30;;;;;;4508789;26;20009;-68
2024/04/14 01:12:56;;;;;;;11.77;2.88;;;14.80;69.50;;;;;;4509077;26;19995;-68
2024/04/14 01:14:57;;;;;;;6.20;2.70;;;14.80;69.50;;;;;;4507243;26;20080;-68
2024/04/14 01:16:58;;;;;;;5.80;2.28;;;14.80;69.50;;;;;;4508791;26;20010;-69
2024/04/14 01:18:58;;;;;;;11.07;3.40;;;14.80;69.70;;;;;;4507037;26;19999;-70
2024/04/14 01:20:59;;;;;;;8.80;2.30;;;14.80;69.60;;;;;;4508998;26;20163;-69
2024/04/14 01:23:00;;;;;;;2.97;1.95;;;14.80;69.70;;;;;;4506856;26;20406;-69
2024/04/14 01:25:03;;;;;;;2.65;2.10;;;14.80;69.50;;;;;;4509075;26;20042;-69
2024/04/14 01:27:04;;;;;;;4.38;2.08;;;14.80;69.60;;;;;;4508303;26;20010;-69
2024/04/14 01:29:06;;;;;;;6.18;1.98;;;14.80;70.00;;;;;;4483917;26;20078;-69
2024/04/14 01:31:06;;;;;;;4.10;1.77;;;14.70;70.20;;;;;;4507025;26;20528;-69
2024/04/14 01:33:07;;;;;;;3.80;1.88;;;14.70;70.10;;;;;;4507148;26;19998;-69
2024/04/14 01:35:08;;;;;;;3.80;1.70;;;14.70;70.10;;;;;;4508838;26;20019;-69
2024/04/14 01:37:08;;;;;;;2.42;1.42;;;14.70;70.50;;;;;;4508506;26;20067;-69
2024/04/14 01:39:10;;;;;;;2.38;1.20;;;14.70;70.50;;;;;;4508807;26;20410;-69
2024/04/14 01:41:11;;;;;;;3.43;1.90;;;14.60;70.50;;;;;;4507070;26;20010;-69
2024/04/14 01:43:11;;;;;;;3.58;1.35;;;14.70;70.50;;;;;;4506880;26;20010;-69
2024/04/14 01:45:12;;;;;;;3.60;1.65;;;14.70;70.50;;;;;;4506631;26;19995;-69
2024/04/14 01:47:12;;;;;;;2.90;1.50;;;14.70;70.80;;;;;;4506841;26;20021;-68
2024/04/14 01:49:13;;;;;;;5.20;1.67;;;14.70;70.70;;;;;;4508643;26;20447;-69
2024/04/14 01:51:14;;;;;;;3.25;1.45;;;14.70;70.70;;;;;;4508723;26;20075;-69
2024/04/14 01:53:14;;;;;;;2.05;1.38;;;14.70;70.50;;;;;;4508723;26;20425;-70
2024/04/14 01:55:15;;;;;;;1.25;1.05;;;14.70;70.50;;;;;;4506538;26;20009;-69
2024/04/14 01:57:16;;;;;;;2.17;1.38;;;14.70;71.00;;;;;;4506622;26;20002;-68
2024/04/14 01:59:16;;;;;;;4.43;1.50;;;14.70;71.20;;;;;;4508694;26;19999;-69
2024/04/14 02:01:17;;;;;;;4.00;1.58;;;14.70;71.30;;;;;;4508311;26;20013;-68
2024/04/14 02:03:18;;;;;;;2.38;1.40;;;14.70;71.00;;;;;;4508335;26;20059;-69
2024/04/14 02:05:18;;;;;;;3.03;1.70;;;14.70;71.20;;;;;;4507984;26;19999;-68
2024/04/14 02:07:21;;;;;;;3.25;1.63;;;14.80;71.00;;;;;;4506565;26;20563;-69
2024/04/14 02:09:22;;;;;;;;;;;14.80;71.30;;;;;;4506731;26;20007;-68
2024/04/14 02:11:23;;;;;;;1.98;1.52;;;14.80;71.30;;;;;;4508052;26;19932;-69
2024/04/14 02:13:23;;;;;;;1.55;1.02;;;14.80;71.30;;;;;;4507850;26;19999;-69
2024/04/14 02:15:24;;;;;;;1.63;1.17;;;14.80;71.10;;;;;;4507531;26;20032;-69
2024/04/14 02:17:25;;;;;;;6.43;1.85;;;14.80;71.00;;;;;;4508277;26;20009;-69
2024/04/14 02:19:25;;;;;;;2.75;1.30;;;14.80;71.20;;;;;;4508252;26;20501;-69
2024/04/14 02:21:26;;;;;;;1.85;1.30;;;14.80;71.00;;;;;;4508633;26;20336;-69
2024/04/14 02:23:27;;;;;;;1.67;1.25;;;14.80;71.10;;;;;;4508386;26;20041;-69
2024/04/14 02:25:28;;;;;;;1.88;1.77;;;14.80;71.30;;;;;;4507955;26;20137;-69
2024/04/14 02:27:28;;;;;;;1.35;1.25;;;14.80;71.50;;;;;;4507787;26;20459;-69
2024/04/14 02:29:29;;;;;;;3.47;1.42;;;14.80;71.30;;;;;;4508402;26;20002;-69
2024/04/14 02:31:29;;;;;;;2.35;1.10;;;14.70;71.20;;;;;;4508082;26;20515;-70
2024/04/14 02:33:31;;;;;;;3.65;1.63;;;14.80;71.40;;;;;;4508201;26;20011;-70
2024/04/14 02:35:31;;;;;;;1.80;1.40;;;14.80;71.50;;;;;;4509927;26;20013;-70
2024/04/14 02:37:32;;;;;;;1.77;1.13;;;14.60;71.60;;;;;;4511076;26;20398;-69
2024/04/14 02:39:33;;;;;;;2.25;1.25;;;14.60;71.50;;;;;;4511195;26;20018;-68
2024/04/14 02:41:35;;;;;;;3.30;1.88;;;14.60;71.60;;;;;;4509558;26;19999;-70
2024/04/14 02:43:36;;;;;;;4.85;1.40;;;14.50;71.70;;;;;;4510452;26;20003;-70
2024/04/14 02:45:36;;;;;;;5.28;2.15;;;14.50;71.70;;;;;;4511105;26;20045;-69
2024/04/14 02:47:37;;;;;;;6.88;1.60;;;14.50;71.90;;;;;;4510872;26;20514;-69
2024/04/14 02:49:38;;;;;;;4.13;1.85;;;14.40;71.80;;;;;;4509172;26;20357;-69
2024/04/14 02:51:41;;;;;;;5.90;1.77;;;14.40;71.90;;;;;;4510852;26;20009;-69
2024/04/14 02:53:42;;;;;;;2.50;2.00;;;14.40;72.00;;;;;;4511108;26;19995;-69
2024/04/14 02:55:43;;;;;;;2.78;1.38;;;14.40;72.00;;;;;;4510646;26;20025;-69
2024/04/14 02:57:45;;;;;;;1.92;1.50;;;14.40;72.00;;;;;;4508867;26;19999;-69
2024/04/14 02:59:46;;;;;;;2.88;1.88;;;14.40;72.00;;;;;;4510681;26;20348;-69
2024/04/14 03:01:47;;;;;;;2.42;1.58;;;14.40;72.20;;;;;;4511074;26;19991;-69
2024/04/14 03:03:48;;;;;;;3.30;1.63;;;14.40;72.20;;;;;;4510994;26;20003;-69
2024/04/14 03:06:04;;;;;;;2.28;1.65;;;14.40;72.20;;;;;;4510464;26;20001;-69
2024/04/14 03:08:05;;;;;;;6.25;1.40;;;14.40;72.10;;;;;;4510753;26;20003;-69
2024/04/14 03:10:06;;;;;;;4.97;1.63;;;14.40;72.00;;;;;;4510835;26;20461;-69
2024/04/14 03:12:07;;;;;;;3.47;1.48;;;14.40;72.10;;;;;;4510555;26;20071;-69
2024/04/14 03:14:07;;;;;;;2.92;1.80;;;14.40;72.10;;;;;;4508659;26;19999;-69
2024/04/14 03:16:09;;;;;;;2.50;1.70;;;14.40;72.10;;;;;;4510358;26;20843;-69
2024/04/14 03:18:10;;;;;;;3.95;1.60;;;14.40;72.00;;;;;;4508818;26;20112;-69
2024/04/14 03:20:11;;;;;;;3.38;1.73;;;14.30;72.00;;;;;;4510494;26;20471;-69
2024/04/14 03:22:11;;;;;;;3.97;1.80;;;14.30;72.00;;;;;;4510488;26;20382;-69
2024/04/14 03:24:12;;;;;;;2.20;1.58;;;14.40;71.90;;;;;;4510808;26;20003;-69
2024/04/14 03:26:13;;;;;;;3.85;2.28;;;14.30;71.90;;;;;;4510255;26;20002;-69
2024/04/14 03:28:13;;;;;;;2.90;1.58;;;14.30;71.90;;;;;;4510245;26;20353;-69
2024/04/14 03:30:14;;;;;;;2.85;1.33;;;14.30;71.70;;;;;;4510495;26;20006;-69
2024/04/14 03:32:15;;;;;;;2.08;1.25;;;14.30;71.60;;;;;;4510457;26;20424;-69
2024/04/14 03:34:16;;;;;;;2.45;1.67;;;14.20;71.50;;;;;;4510545;26;19999;-69
2024/04/14 03:36:16;;;;;;;5.50;1.80;;;14.20;71.50;;;;;;4510070;26;20073;-69
2024/04/14 03:38:17;;;;;;;3.25;1.40;;;14.20;71.50;;;;;;4508687;26;19998;-69
2024/04/14 03:40:17;;;;;;;3.22;1.23;;;14.20;71.50;;;;;;4510588;26;19999;-69
2024/04/14 03:42:18;;;;;;;7.82;1.48;;;14.20;71.50;;;;;;4510320;26;20009;-69
2024/04/14 03:44:19;;;;;;;3.50;1.35;;;14.20;71.50;;;;;;4510341;26;20046;-69
2024/04/14 03:46:20;;;;;;;6.97;1.67;;;14.20;71.40;;;;;;4508040;26;20007;-69
2024/04/14 03:48:20;;;;;;;2.13;1.30;;;14.20;71.40;;;;;;4510222;26;20655;-69
2024/04/14 03:50:21;;;;;;;3.17;1.50;;;14.30;71.20;;;;;;4508669;26;19999;-69
2024/04/14 03:52:21;;;;;;;7.88;2.00;;;14.20;71.20;;;;;;4510354;26;20003;-69
2024/04/14 03:54:22;;;;;;;3.80;1.65;;;14.20;71.10;;;;;;4510252;26;20008;-69
2024/04/14 03:56:23;;;;;;;2.78;1.30;;;14.20;71.00;;;;;;4509722;26;20481;-69
2024/04/14 03:58:23;;;;;;;4.78;1.98;;;14.10;71.10;;;;;;4508398;26;20060;-69
2024/04/14 04:00:24;;;;;;;5.65;2.10;;;14.10;71.10;;;;;;4508397;26;19998;-70
2024/04/14 04:02:25;;;;;;;6.03;1.85;;;14.10;71.10;;;;;;4509950;26;19999;-69
2024/04/14 04:04:25;;;;;;;3.22;1.83;;;14.00;71.20;;;;;;4510210;26;20003;-69
2024/04/14 04:06:26;;;;;;;2.83;1.30;;;14.10;71.30;;;;;;4509373;26;20036;-67
2024/04/14 04:08:27;;;;;;;1.95;1.25;;;14.00;71.30;;;;;;4507973;26;20003;-68
2024/04/14 04:10:27;;;;;;;8.48;1.83;;;14.10;71.40;;;;;;4508049;26;19995;-68
2024/04/14 04:12:29;;;;;;;1.73;1.60;;;14.10;71.40;;;;;;4509605;26;20441;-68
2024/04/14 04:14:29;;;;;;;3.20;1.40;;;14.10;71.40;;;;;;4509872;26;19999;-68
2024/04/14 04:16:30;;;;;;;4.18;1.50;;;14.10;71.30;;;;;;4507449;26;19999;-68
2024/04/14 04:18:31;;;;;;;7.10;1.75;;;14.10;71.20;;;;;;4509909;26;20003;-68
2024/04/14 04:20:31;;;;;;;5.47;1.42;;;14.10;71.20;;;;;;4509816;26;20037;-69
2024/04/14 04:22:32;;;;;;;3.97;1.40;;;14.10;71.20;;;;;;4509859;26;20404;-69
2024/04/14 04:24:33;;;;;;;3.63;1.35;;;14.10;71.30;;;;;;4509774;26;20076;-68
2024/04/14 04:26:34;;;;;;;4.57;1.77;;;14.00;71.30;;;;;;4507432;26;20011;-68
2024/04/14 04:28:35;;;;;;;1.98;1.13;;;14.00;71.30;;;;;;4507829;26;20072;-68
2024/04/14 04:30:36;;;;;;;4.05;1.20;;;14.10;71.40;;;;;;4509466;26;20404;-69
2024/04/14 04:32:36;;;;;;;3.67;1.35;;;14.10;71.30;;;;;;4507729;26;19994;-68
2024/04/14 04:34:37;;;;;;;3.95;1.58;;;14.10;71.40;;;;;;4509838;26;19999;-68
2024/04/14 04:36:37;;;;;;;1.50;1.10;;;14.00;71.50;;;;;;4509057;26;19995;-68
2024/04/14 04:38:38;;;;;;;2.63;1.50;;;14.00;71.50;;;;;;4509607;26;20015;-69
2024/04/14 04:40:39;;;;;;;2.13;1.10;;;14.10;71.60;;;;;;4507981;26;20003;-69
2024/04/14 04:42:39;;;;;;;3.55;1.42;;;14.00;71.50;;;;;;4509480;26;20554;-69
2024/04/14 04:44:40;;;;;;;3.30;1.27;;;14.10;71.50;;;;;;4507887;26;20068;-68
2024/04/14 04:46:41;;;;;;;4.10;1.45;;;14.10;71.50;;;;;;4509231;26;20010;-71
2024/04/14 04:48:42;;;;;;;3.60;1.45;;;14.10;71.50;;;;;;4509494;26;19994;-69
2024/04/14 04:50:45;;;;;;;1.60;0.88;;;14.10;71.50;;;;;;4509478;26;20391;-69
2024/04/14 04:52:46;;;;;;;6.78;1.80;;;14.20;71.40;;;;;;4507693;26;20010;-68
2024/04/14 04:54:47;;;;;;;7.00;1.35;;;14.20;71.30;;;;;;4509694;26;20007;-69
2024/04/14 04:56:47;;;;;;;6.13;1.05;;;14.20;71.30;;;;;;4507172;26;20010;-69
2024/04/14 04:58:48;;;;;;;2.65;1.13;;;14.20;71.40;;;;;;4508818;26;20399;-69
2024/04/14 05:00:58;;;;;;;1.70;1.23;;;14.20;71.30;;;;;;4507762;26;20055;-68
2024/04/14 05:02:59;;;;;;;2.28;1.60;;;14.20;71.40;;;;;;4509300;26;19999;-69
2024/04/14 05:04:59;;;;;;;3.55;1.40;;;14.30;71.30;;;;;;4509096;26;20596;-69
2024/04/14 05:07:01;;;;;;;4.70;1.10;;;14.30;71.20;;;;;;4509280;26;20136;-69
2024/04/14 05:09:02;;;;;;;5.90;1.20;;;14.20;71.10;;;;;;4509383;26;20372;-69
2024/04/14 05:11:03;;;;;;;6.90;1.90;;;14.20;71.10;;;;;;4509242;26;19995;-69
2024/04/14 05:13:04;;;;;;;4.55;1.02;;;14.20;71.10;;;;;;4508930;26;20038;-69
2024/04/14 05:15:06;;;;;;;6.35;1.45;;;14.20;71.00;;;;;;4508430;26;19995;-69
2024/04/14 05:17:07;;;;;;;3.15;1.58;;;14.10;71.10;;;;;;4509323;26;19998;-68
2024/04/14 05:19:08;;;;;;;2.67;0.90;;;14.20;71.20;;;;;;4509023;26;20438;-68
2024/04/14 05:21:08;;;;;;;4.72;1.58;;;14.20;71.20;;;;;;4509188;26;20501;-69
2024/04/14 05:23:09;;;;;;;7.57;1.67;;;14.20;71.20;;;;;;4507426;26;20332;-69
2024/04/14 05:25:09;;;;;;;4.55;1.73;;;14.20;71.20;;;;;;4508905;26;20009;-70
2024/04/14 05:27:12;;;;;;;4.38;1.10;;;14.20;71.00;;;;;;4508778;26;19998;-69
2024/04/14 05:29:12;;;;;;;;;;;14.10;71.00;;;;;;4509768;26;20071;-69
2024/04/14 05:31:13;;;;;;;4.40;1.10;;;14.10;71.00;;;;;;4507138;26;19932;-68
2024/04/14 05:33:13;;;;;;;7.05;2.05;;;14.10;71.00;;;;;;4509279;26;19994;-69
2024/04/14 05:35:14;;;;;;;4.82;1.50;;;14.10;71.00;;;;;;4508690;26;20047;-68
2024/04/14 05:37:15;;;;;;;7.78;1.40;;;14.20;71.00;;;;;;4507373;26;20002;-69
2024/04/14 05:39:15;;;;;;;6.15;2.17;;;14.20;71.00;;;;;;4508705;26;20007;-69
2024/04/14 05:41:16;;;;;;;6.38;1.65;;;14.20;70.90;;;;;;4508947;26;20330;-69
2024/04/14 05:43:17;;;;;;;6.30;1.27;;;14.20;70.70;;;;;;4508522;26;19995;-69
2024/04/14 05:45:24;;;;;;;6.50;1.38;;;14.10;70.80;;;;;;4508607;26;20003;-69
2024/04/14 05:47:25;;;;;;;6.93;2.67;;;14.20;70.80;;;;;;4509032;26;20027;-70
2024/04/14 05:49:26;;;;;;;10.20;1.70;;;14.10;70.80;;;;;;4509062;26;20493;-69
2024/04/14 05:51:26;;;;;;;14.13;3.22;;;14.10;70.70;;;;;;4508622;26;20095;-69
2024/04/14 05:53:27;;;;;;;6.78;1.73;;;14.20;70.80;;;;;;4509118;26;20027;-69
2024/04/14 05:55:28;;;;;;;8.48;1.63;;;14.20;70.80;;;;;;4508739;26;19995;-69
2024/04/14 05:57:28;;;;;;;5.38;2.03;;;14.10;70.70;;;;;;4508867;26;20456;-69
2024/04/14 05:59:29;;;;;;;6.57;1.73;;;14.10;70.60;;;;;;4508849;26;20003;-70
2024/04/14 06:01:29;;;;;;;6.22;1.85;;;14.10;70.70;;;;;;4508408;26;20014;-69
2024/04/14 06:03:30;;;;;;;8.35;1.67;;;14.10;70.60;;;;;;4507223;26;20014;-70
2024/04/14 06:05:31;;;;;;;6.28;1.52;;;14.20;70.70;;;;;;4506627;26;20411;-69
2024/04/14 06:07:32;;;;;;;4.80;1.55;;;14.20;70.60;;;;;;4508488;26;20034;-69
2024/04/14 06:09:32;;;;;;;4.70;1.70;;;14.20;70.50;;;;;;4509053;26;20002;-69
2024/04/14 06:11:34;;;;;;;150.77;110.03;;;14.10;70.40;;;;;;4511188;26;19999;-69
2024/04/14 06:13:34;;;;;;;57.47;34.15;;;14.20;70.60;;;;;;4511062;26;20011;-69
2024/04/14 06:15:35;;;;;;;9.38;4.25;;;14.30;70.70;;;;;;4510688;26;20010;-69
2024/04/14 06:17:36;;;;;;;6.00;1.70;;;14.20;70.50;;;;;;4509069;26;20038;-69
2024/04/14 06:19:36;;;;;;;8.82;2.72;;;14.30;70.50;;;;;;4509051;26;19998;-69
2024/04/14 06:21:38;;;;;;;8.68;2.25;;;14.30;70.40;;;;;;4501480;26;20441;-68
2024/04/14 06:23:38;;;;;;;4.88;1.77;;;14.40;70.40;;;;;;4509167;26;20079;-68
2024/04/14 06:25:39;;;;;;;8.40;2.78;;;14.40;70.50;;;;;;4508476;26;19995;-68
2024/04/14 06:27:40;;;;;;;5.82;1.73;;;14.30;70.30;;;;;;4510638;26;20049;-68
2024/04/14 06:29:40;;;;;;;6.45;2.13;;;14.30;70.30;;;;;;4510845;26;20481;-68
2024/04/14 06:31:41;;;;;;;5.70;1.83;;;14.30;70.40;;;;;;4510622;26;20035;-68
2024/04/14 06:33:42;;;;;;;5.95;2.28;;;14.30;70.30;;;;;;4510953;26;20071;-68
2024/04/14 06:35:42;;;;;;;4.15;1.63;;;14.30;70.30;;;;;;4510416;26;20007;-68
2024/04/14 06:37:43;;;;;;;8.45;1.65;;;14.30;70.30;;;;;;4510878;26;19998;-68
2024/04/14 06:39:44;;;;;;;7.07;1.45;;;14.40;70.40;;;;;;4511004;26;19995;-68
2024/04/14 06:41:44;;;;;;;8.15;2.17;;;14.30;70.30;;;;;;4510807;26;20021;-68
2024/04/14 06:43:45;;;;;;;7.32;1.80;;;14.30;70.10;;;;;;4510512;26;20897;-68
2024/04/14 06:45:52;;;;;;;4.45;1.98;;;14.30;70.10;;;;;;4510161;26;20702;-68
2024/04/14 06:47:53;;;;;;;5.15;1.98;;;14.30;70.20;;;;;;4487158;26;20317;-68
2024/04/14 06:49:53;;;;;;;6.85;1.70;;;14.40;70.30;;;;;;4510490;26;19994;-68
2024/04/14 06:51:54;;;;;;;6.65;1.95;;;14.40;70.40;;;;;;4508748;26;20089;-68
2024/04/14 06:53:56;;;;;;;6.22;1.70;;;14.40;70.40;;;;;;4510717;26;20413;-69
2024/04/14 06:56:00;;;;;;;5.82;2.03;;;14.40;70.30;;;;;;4510472;26;20029;-69
2024/04/14 06:58:00;;;;;;;5.65;1.95;;;14.50;70.30;;;;;;4485714;26;19996;-69
2024/04/14 07:00:01;;;;;;;6.85;1.95;;;14.50;70.20;;;;;;4510953;26;20352;-70
2024/04/14 07:02:02;;;;;;;8.60;1.73;;;14.50;70.10;;;;;;4510601;26;20003;-69
2024/04/14 07:04:02;;;;;;;5.10;1.98;;;14.50;69.90;;;;;;4510629;26;19999;-69
2024/04/14 07:06:03;;;;;;;11.10;1.98;;;14.50;69.90;;;;;;4510540;26;19999;-69
2024/04/14 07:08:04;;;;;;;5.53;1.50;;;14.50;69.90;;;;;;4510511;26;20006;-69
2024/04/14 07:10:06;;;;;;;7.80;2.57;;;14.50;70.00;;;;;;4510629;26;20025;-69
2024/04/14 07:12:07;;;;;;;60.33;39.13;;;14.50;69.70;;;;;;4508558;26;20010;-69
2024/04/14 07:14:07;;;;;;;13.15;4.57;;;14.50;69.90;;;;;;4510863;26;19999;-69
2024/04/14 07:16:08;;;;;;;11.98;1.92;;;14.50;69.80;;;;;;4509873;26;20003;-69
2024/04/14 07:18:09;;;;;;;5.60;1.83;;;14.50;69.80;;;;;;4510557;26;20009;-69
2024/04/14 07:20:10;;;;;;;9.68;2.47;;;14.50;69.90;;;;;;4508411;26;19998;-69
2024/04/14 07:22:10;;;;;;;8.77;1.88;;;14.60;70.00;;;;;;4510278;26;20010;-69
2024/04/14 07:24:12;;;;;;;6.10;1.70;;;14.60;69.80;;;;;;4510523;26;20010;-69
2024/04/14 07:26:12;;;;;;;5.30;1.43;;;14.70;69.90;;;;;;4510086;26;20421;-69
2024/04/14 07:28:13;;;;;;;7.15;2.65;;;14.70;69.90;;;;;;4510151;26;20096;-71
2024/04/14 07:30:14;;;;;;;11.38;2.75;;;14.80;69.80;;;;;;4507676;26;20079;-70
2024/04/14 07:32:15;;;;;;;9.77;2.10;;;14.80;69.70;;;;;;4510034;26;19995;-70
2024/04/14 07:34:16;;;;;;;10.07;2.43;;;14.80;69.40;;;;;;4510194;26;20025;-69
2024/04/14 07:36:16;;;;;;;5.93;1.70;;;14.80;69.60;;;;;;4509933;26;20003;-69
2024/04/14 07:38:17;;;;;;;7.72;2.20;;;14.80;69.70;;;;;;4510251;26;20758;-69
2024/04/14 07:40:18;;;;;;;8.23;1.98;;;14.80;69.40;;;;;;4509889;26;20523;-69
2024/04/14 07:42:18;;;;;;;8.02;2.03;;;14.80;69.50;;;;;;4510101;26;20011;-70
2024/04/14 07:44:19;;;;;;;3.70;1.48;;;14.80;69.30;;;;;;4508362;26;20013;-69
2024/04/14 07:46:19;;;;;;;7.90;1.85;;;14.80;69.30;;;;;;4509361;26;20006;-70
2024/04/14 07:48:20;;;;;;;6.78;2.22;;;14.90;69.50;;;;;;4508263;26;20010;-69
2024/04/14 07:50:21;;;;;;;6.63;1.77;;;14.90;69.40;;;;;;4510026;26;20433;-69
2024/04/14 07:52:21;;;;;;;5.43;1.63;;;14.90;69.10;;;;;;4508293;26;20480;-69
2024/04/14 07:54:23;;;;;;;6.60;2.30;;;14.90;69.30;;;;;;4510249;26;20026;-69
2024/04/14 07:56:23;;;;;;;9.48;3.88;;;14.90;69.20;;;;;;4510704;26;19995;-69
2024/04/14 07:58:24;;;;;;;8.57;3.67;;;14.80;69.10;;;;;;4509962;26;19999;-69
2024/04/14 08:00:25;;;;;;;11.27;6.13;;;14.90;69.20;;;;;;4510093;26;20441;-69
2024/04/14 08:02:25;;;;;;;9.35;2.30;;;14.90;69.40;;;;;;4509976;26;20007;-69
2024/04/14 08:04:26;;;;;;;9.93;1.73;;;15.00;69.40;;;;;;4510098;26;20014;-69
2024/04/14 08:06:27;;;;;;;9.45;2.10;;;15.00;69.30;;;;;;4509570;26;19995;-69
2024/04/14 08:08:28;;;;;;;3.72;2.10;;;15.00;69.10;;;;;;4509951;26;20003;-69
2024/04/14 08:10:28;;;;;;;5.50;1.35;;;15.00;69.00;;;;;;4510108;26;20071;-70
2024/04/14 08:12:29;;;;;;;8.90;2.47;;;15.00;68.90;;;;;;4509720;26;20039;-70
2024/04/14 08:14:30;;;;;;;5.57;1.80;;;15.10;68.80;;;;;;4509851;26;19998;-69
2024/04/14 08:16:30;;;;;;;7.78;2.05;;;15.20;68.90;;;;;;4508029;26;20139;-69
2024/04/14 08:18:31;;;;;;;7.07;2.10;;;15.20;69.10;;;;;;4509893;26;20038;-69
2024/04/14 08:20:32;;;;;;;11.05;3.08;;;15.30;68.90;;;;;;4509872;26;19991;-69
2024/04/14 08:22:32;;;;;;;15.10;4.65;;;15.40;68.70;;;;;;4509873;26;20047;-70
2024/04/14 08:24:34;;;;;;;6.55;1.98;;;15.30;68.40;;;;;;4509262;26;20075;-69
2024/04/14 08:26:35;;;;;;;6.35;1.77;;;15.40;68.30;;;;;;4509738;26;20017;-70
2024/04/14 08:28:35;;;;;;;8.10;2.03;;;15.40;68.20;;;;;;4509264;26;20011;-70
2024/04/14 08:30:37;;;;;;;6.10;1.63;;;15.50;68.40;;;;;;4509366;26;20437;-70
2024/04/14 08:32:37;;;;;;;6.15;1.88;;;15.50;68.30;;;;;;4508591;26;20003;-67
2024/04/14 08:34:38;;;;;;;6.50;2.17;;;15.50;68.30;;;;;;4507194;26;20003;-68
2024/04/14 08:36:38;;;;;;;5.82;1.83;;;15.70;68.90;;;;;;4509507;26;20108;-68
2024/04/14 08:38:39;;;;;;;5.95;2.13;;;15.80;68.00;;;;;;4509575;26;20433;-67
2024/04/14 08:40:40;;;;;;;8.55;2.30;;;15.80;67.90;;;;;;4509487;26;19998;-68
2024/04/14 08:42:41;;;;;;;8.63;2.33;;;15.90;67.80;;;;;;4509575;26;20041;-68
2024/04/14 08:44:42;;;;;;;9.25;2.50;;;16.00;68.20;;;;;;4506956;26;20006;-68
2024/04/14 08:46:44;;;;;;;8.73;2.00;;;16.00;68.30;;;;;;4509321;26;20021;-68
2024/04/14 08:48:46;;;;;;;5.53;1.70;;;16.20;68.10;;;;;;4507357;26;20006;-68
2024/04/14 08:50:47;;;;;;;4.22;2.03;;;16.30;67.60;;;;;;4507015;26;20053;-68
2024/04/14 08:52:48;;;;;;;7.47;2.33;;;16.30;67.40;;;;;;4509409;26;20036;-68
2024/04/14 08:54:49;;;;;;;3.97;1.80;;;16.40;66.70;;;;;;4507219;26;20007;-68
2024/04/14 08:56:55;;;;;;;7.30;1.67;;;16.50;67.40;;;;;;4509399;26;20396;-68
2024/04/14 08:59:05;;;;;;;7.72;2.30;;;16.50;67.10;;;;;;4509131;26;19995;-68
2024/04/14 09:01:09;;;;;;;4.68;2.00;;;16.60;67.00;;;;;;4509233;26;21147;-69
2024/04/14 09:03:10;;;;;;;9.38;2.00;;;16.60;66.50;;;;;;4507131;26;20433;-68
2024/04/14 09:05:12;;;;;;;7.57;2.20;;;16.70;66.20;;;;;;4508083;26;20018;-68
2024/04/14 09:07:13;;;;;;;5.63;1.75;;;16.70;66.40;;;;;;4508253;26;20002;-68
2024/04/14 09:09:14;;;;;;;4.13;1.95;;;16.90;66.10;;;;;;4508401;26;20050;-69
2024/04/14 09:11:14;;;;;;;4.63;2.10;;;16.90;66.20;;;;;;4506917;26;20002;-69
2024/04/14 09:13:17;;;;;;;6.80;1.77;;;16.90;65.50;;;;;;4508162;26;20014;-69
2024/04/14 09:15:18;;;;;;;10.25;2.70;;;17.00;66.00;;;;;;4506600;26;20080;-69
2024/04/14 09:17:18;;;;;;;5.22;1.50;;;17.00;64.90;;;;;;4508690;26;20034;-69
2024/04/14 09:19:19;;;;;;;4.55;2.33;;;17.00;64.30;;;;;;4508969;26;20079;-68
2024/04/14 09:21:20;;;;;;;15.38;2.88;;;17.00;65.00;;;;;;4508752;26;20034;-69
2024/04/14 09:23:20;;;;;;;4.13;1.98;;;17.10;65.30;;;;;;4506422;26;20011;-67
2024/04/14 09:25:21;;;;;;;5.57;1.65;;;17.30;66.00;;;;;;4506462;26;20009;-68
2024/04/14 09:27:23;;;;;;;8.63;2.42;;;17.50;65.80;;;;;;4508265;26;20433;-69
2024/04/14 09:29:23;;;;;;;6.63;1.88;;;17.50;65.10;;;;;;4508619;26;20016;-69
2024/04/14 09:31:24;;;;;;;7.43;1.90;;;17.70;65.10;;;;;;4506886;26;19995;-69
2024/04/14 09:33:26;;;;;;;4.63;1.58;;;17.70;64.50;;;;;;4493304;26;20027;-69
2024/04/14 09:35:27;;;;;;;12.45;2.90;;;17.80;64.30;;;;;;4503433;26;20547;-68
2024/04/14 09:37:28;;;;;;;4.88;2.08;;;17.90;63.50;;;;;;4504650;26;20050;-69
2024/04/14 09:39:30;;;;;;;9.18;2.13;;;18.00;63.90;;;;;;4506532;26;19999;-68
2024/04/14 09:41:32;;;;;;;4.85;1.83;;;18.00;63.60;;;;;;4506736;26;20076;-69
2024/04/14 09:43:34;;;;;;;6.43;2.05;;;18.10;63.70;;;;;;4536465;26;19998;-68
2024/04/14 09:45:35;;;;;;;7.82;2.28;;;18.20;63.50;;;;;;4505800;26;20013;-69
2024/04/14 09:47:37;;;;;;;7.00;2.00;;;18.30;63.30;;;;;;4506378;26;20847;-68
2024/04/14 09:49:39;;;;;;;5.85;1.70;;;18.30;63.10;;;;;;4508403;26;19999;-68
2024/04/14 09:51:43;;;;;;;5.82;1.85;;;18.20;62.30;;;;;;4490448;26;19999;-68
2024/04/14 09:53:44;;;;;;;5.55;1.98;;;18.20;62.50;;;;;;4508325;26;19998;-67
2024/04/14 09:55:45;;;;;;;7.78;2.00;;;18.40;62.80;;;;;;4505065;26;20003;-69
2024/04/14 09:57:48;;;;;;;9.45;2.03;;;18.40;62.60;;;;;;4504478;26;20003;-68
2024/04/14 09:59:49;;;;;;;4.28;2.05;;;18.40;62.10;;;;;;4507780;26;20075;-69
2024/04/14 10:01:51;;;;;;;8.55;2.45;;;18.40;62.00;;;;;;4508404;26;20014;-69
2024/04/14 10:03:56;;;;;;;7.65;1.88;;;18.50;62.20;;;;;;4508496;26;19999;-71
2024/04/14 10:05:58;;;;;;;6.10;1.80;;;18.70;62.10;;;;;;4507335;26;20011;-70
2024/04/14 10:08:00;;;;;;;7.05;2.47;;;18.80;62.10;;;;;;4504162;26;20104;-70
2024/04/14 10:10:01;;;;;;;4.55;1.30;;;18.90;62.40;;;;;;4508866;26;20007;-69
2024/04/14 10:12:01;;;;;;;4.97;1.80;;;19.00;61.90;;;;;;4507929;26;20321;-69
2024/04/14 10:14:02;;;;;;;5.95;1.30;;;19.10;61.50;;;;;;4507975;26;19999;-69
2024/04/14 10:16:06;;;;;;;5.10;2.03;;;19.20;60.90;;;;;;4507825;26;20021;-69
2024/04/14 10:18:17;;;;;;;8.60;1.70;;;19.30;61.20;;;;;;4508066;26;19995;-69
2024/04/14 10:20:18;;;;;;;7.30;2.72;;;19.50;61.30;;;;;;4506101;26;19999;-70
2024/04/14 10:22:21;;;;;;;17.92;5.40;;;19.50;60.30;;;;;;4507625;26;19995;-69
2024/04/14 10:24:23;;;;;;;8.32;3.45;;;19.60;60.50;;;;;;4506838;26;20035;-70
2024/04/14 10:26:24;;;;;;;8.57;3.38;;;19.60;59.00;;;;;;4506923;26;20014;-73
2024/04/14 10:28:25;;;;;;;6.37;3.30;;;19.60;59.40;;;;;;4507141;26;20347;-74